createdAt,value
2023-04-13T00:00:48.805Z,8.50
2023-04-13T00:03:17.532Z,8.50
2023-04-13T00:05:46.471Z,8.50
2023-04-13T00:08:14.053Z,8.50
2023-04-13T00:10:41.844Z,8.40
2023-04-13T00:13:11.388Z,8.30
2023-04-13T00:15:43.172Z,8.40
2023-04-13T00:18:11.111Z,8.40
2023-04-13T00:20:41.040Z,8.40
2023-04-13T00:23:07.928Z,8.30
2023-04-13T00:25:34.788Z,8.30
2023-04-13T00:28:06.303Z,8.30
2023-04-13T00:30:33.434Z,8.30
2023-04-13T00:33:03.721Z,8.30
2023-04-13T00:35:30.994Z,8.30
2023-04-13T00:37:58.758Z,8.30
2023-04-13T00:40:28.168Z,8.30
2023-04-13T00:42:55.220Z,8.30
2023-04-13T00:45:22.244Z,8.30
2023-04-13T00:47:51.907Z,8.30
2023-04-13T00:50:21.171Z,8.10
2023-04-13T00:52:49.036Z,8.10
2023-04-13T00:55:21.251Z,8.00
2023-04-13T00:57:53.356Z,8.10
2023-04-13T01:00:21.966Z,8.10
2023-04-13T01:02:52.753Z,8.10
2023-04-13T01:05:20.208Z,8.10
2023-04-13T01:08:09.245Z,8.10
2023-04-13T01:11:05.753Z,8.10
2023-04-13T01:13:47.472Z,8.10
2023-04-13T01:16:33.170Z,8.20
2023-04-13T01:19:01.213Z,8.10
2023-04-13T01:21:32.051Z,8.10
2023-04-13T01:24:43.378Z,8.10
2023-04-13T01:27:43.743Z,8.20
2023-04-13T01:30:16.822Z,8.20
2023-04-13T01:32:45.826Z,8.20
2023-04-13T01:35:13.550Z,8.20
2023-04-13T01:37:44.947Z,8.30
2023-04-13T01:40:12.907Z,8.40
2023-04-13T01:42:42.244Z,8.40
2023-04-13T01:45:27.429Z,8.40
2023-04-13T01:48:33.403Z,8.30
2023-04-13T01:51:16.622Z,8.30
2023-04-13T01:54:02.698Z,8.30
2023-04-13T01:56:30.957Z,8.30
2023-04-13T01:58:59.914Z,8.30
2023-04-13T02:01:27.025Z,8.30
2023-04-13T02:03:54.208Z,8.30
2023-04-13T02:06:21.243Z,8.20
2023-04-13T02:08:49.565Z,8.20
2023-04-13T02:11:18.061Z,8.10
2023-04-13T02:13:44.930Z,8.20
2023-04-13T02:16:11.859Z,8.20
2023-04-13T02:18:38.760Z,8.10
2023-04-13T02:21:13.342Z,8.20
2023-04-13T02:23:41.383Z,8.20
2023-04-13T02:26:10.650Z,8.10
2023-04-13T02:28:37.500Z,8.00
2023-04-13T02:31:05.910Z,7.80
2023-04-13T02:33:34.414Z,7.80
2023-04-13T02:36:04.081Z,7.80
2023-04-13T02:38:32.209Z,7.70
2023-04-13T02:41:01.235Z,7.70
2023-04-13T02:43:28.969Z,7.70
2023-04-13T02:45:57.468Z,7.70
2023-04-13T02:48:24.400Z,7.80
2023-04-13T02:50:52.073Z,7.80
2023-04-13T02:53:19.284Z,7.80
2023-04-13T02:55:50.286Z,7.90
2023-04-13T02:58:17.419Z,7.80
2023-04-13T03:00:44.659Z,7.80
2023-04-13T03:03:11.932Z,7.80
2023-04-13T03:05:38.969Z,7.80
2023-04-13T03:08:06.311Z,7.80
2023-04-13T03:10:33.300Z,7.80
2023-04-13T03:13:00.201Z,7.80
2023-04-13T03:15:27.307Z,7.80
2023-04-13T03:17:54.185Z,7.80
2023-04-13T03:20:23.697Z,7.90
2023-04-13T03:22:51.727Z,7.80
2023-04-13T03:25:18.711Z,7.80
2023-04-13T03:27:45.585Z,7.80
2023-04-13T03:30:12.934Z,7.80
2023-04-13T03:32:39.984Z,7.80
2023-04-13T03:35:07.219Z,7.70
2023-04-13T03:37:40.383Z,7.70
2023-04-13T03:40:11.363Z,7.60
2023-04-13T03:42:38.688Z,7.70
2023-04-13T03:45:07.049Z,7.70
2023-04-13T03:47:34.091Z,7.70
2023-04-13T03:50:01.398Z,7.70
2023-04-13T03:52:28.345Z,7.70
2023-04-13T03:54:55.352Z,7.70
2023-04-13T03:57:22.814Z,7.60
2023-04-13T03:59:49.714Z,7.70
2023-04-13T04:02:16.764Z,7.60
2023-04-13T04:04:43.837Z,7.50
2023-04-13T04:07:11.099Z,7.50
2023-04-13T04:09:37.981Z,7.50
2023-04-13T04:12:05.442Z,7.50
2023-04-13T04:14:32.336Z,7.40
2023-04-13T04:16:59.254Z,7.50
2023-04-13T04:19:26.116Z,7.60
2023-04-13T04:21:53.045Z,7.60
2023-04-13T04:24:23.644Z,7.60
2023-04-13T04:26:50.784Z,7.60
2023-04-13T04:29:21.927Z,7.60
2023-04-13T04:31:53.444Z,7.60
2023-04-13T04:34:20.998Z,7.60
2023-04-13T04:36:51.853Z,7.70
2023-04-13T04:39:22.472Z,7.70
2023-04-13T04:41:54.224Z,7.80
2023-04-13T04:44:25.483Z,7.80
2023-04-13T04:46:52.864Z,7.80
2023-04-13T04:49:23.230Z,7.80
2023-04-13T04:51:50.108Z,7.80
2023-04-13T04:54:18.276Z,7.80
2023-04-13T04:56:45.727Z,7.90
2023-04-13T04:59:12.940Z,7.90
2023-04-13T05:01:40.838Z,7.90
2023-04-13T05:04:08.149Z,8.00
2023-04-13T05:06:35.380Z,8.10
2023-04-13T05:09:07.041Z,8.20
2023-04-13T05:11:34.125Z,8.20
2023-04-13T05:14:01.543Z,8.30
2023-04-13T05:16:30.633Z,8.30
2023-04-13T05:18:58.116Z,8.40
2023-04-13T05:21:26.810Z,8.50
2023-04-13T05:23:53.769Z,8.60
2023-04-13T05:26:20.739Z,8.70
2023-04-13T05:28:47.721Z,8.80
2023-04-13T05:31:16.113Z,8.90
2023-04-13T05:33:43.219Z,9.00
2023-04-13T05:36:10.264Z,9.00
2023-04-13T05:38:37.144Z,9.10
2023-04-13T05:41:04.254Z,9.20
2023-04-13T05:43:31.387Z,9.30
2023-04-13T05:45:58.336Z,9.30
2023-04-13T05:48:26.577Z,9.40
2023-04-13T05:50:59.590Z,9.40
2023-04-13T05:53:27.101Z,9.50
2023-04-13T05:55:55.541Z,9.50
2023-04-13T05:58:22.501Z,9.60
2023-04-13T06:00:49.458Z,9.80
2023-04-13T06:03:17.226Z,9.90
2023-04-13T06:05:44.767Z,10.00
2023-04-13T06:08:11.899Z,10.10
2023-04-13T06:10:39.163Z,10.20
2023-04-13T06:13:06.140Z,10.40
2023-04-13T06:15:34.266Z,10.60
2023-04-13T06:18:01.220Z,10.80
2023-04-13T06:20:28.445Z,11.00
2023-04-13T06:22:55.312Z,11.20
2023-04-13T06:25:22.496Z,11.30
2023-04-13T06:27:49.980Z,11.40
2023-04-13T06:30:17.395Z,11.60
2023-04-13T06:32:44.391Z,11.70
2023-04-13T06:35:11.324Z,11.80
2023-04-13T06:37:39.500Z,12.00
2023-04-13T06:40:12.181Z,12.10
2023-04-13T06:42:41.400Z,12.30
2023-04-13T06:45:12.642Z,12.40
2023-04-13T06:47:43.270Z,12.60
2023-04-13T06:50:18.526Z,12.70
2023-04-13T06:52:48.004Z,12.90
2023-04-13T06:55:15.858Z,13.00
2023-04-13T06:57:43.638Z,13.20
2023-04-13T07:00:28.250Z,13.40
2023-04-13T07:02:58.798Z,13.50
2023-04-13T07:05:26.013Z,13.70
2023-04-13T07:07:52.946Z,13.70
2023-04-13T07:10:19.984Z,13.90
2023-04-13T07:12:46.899Z,14.10
2023-04-13T07:15:13.865Z,14.10
2023-04-13T07:17:40.939Z,14.30
2023-04-13T07:20:09.379Z,14.40
2023-04-13T07:22:36.705Z,14.60
2023-04-13T07:25:04.114Z,14.70
2023-04-13T07:27:31.152Z,14.90
2023-04-13T07:29:58.126Z,15.00
2023-04-13T07:32:30.861Z,15.10
2023-04-13T07:35:01.408Z,15.20
2023-04-13T07:37:28.542Z,15.10
2023-04-13T07:39:55.447Z,15.10
2023-04-13T07:42:22.308Z,15.20
2023-04-13T07:44:49.230Z,15.40
2023-04-13T07:47:16.790Z,15.50
2023-04-13T07:49:43.672Z,15.70
2023-04-13T07:52:10.519Z,15.90
2023-04-13T07:54:41.016Z,15.90
2023-04-13T07:57:07.904Z,16.10
2023-04-13T07:59:34.839Z,16.20
2023-04-13T08:02:01.748Z,16.40
2023-04-13T08:04:28.818Z,16.50
2023-04-13T08:06:55.875Z,16.70
2023-04-13T08:09:22.726Z,16.70
2023-04-13T08:11:50.066Z,16.60
2023-04-13T08:14:17.413Z,16.60
2023-04-13T08:16:44.327Z,16.70
2023-04-13T08:19:11.246Z,16.70
2023-04-13T08:21:41.765Z,16.80
2023-04-13T08:24:09.731Z,16.70
2023-04-13T08:26:36.803Z,16.60
2023-04-13T08:29:03.851Z,16.70
2023-04-13T08:31:32.423Z,16.90
2023-04-13T08:33:59.347Z,16.80
2023-04-13T08:36:27.558Z,16.90
2023-04-13T08:38:54.482Z,17.00
2023-04-13T08:41:22.833Z,17.20
2023-04-13T08:43:51.073Z,17.40
2023-04-13T08:46:22.346Z,17.50
2023-04-13T08:48:54.599Z,17.70
2023-04-13T08:51:26.601Z,17.90
2023-04-13T08:53:53.801Z,18.00
2023-04-13T08:56:28.296Z,17.80
2023-04-13T08:59:09.159Z,17.60
2023-04-13T09:01:40.582Z,17.40
2023-04-13T09:04:13.995Z,17.20
2023-04-13T09:06:45.927Z,17.10
2023-04-13T09:09:14.813Z,17.10
2023-04-13T09:11:43.471Z,17.10
2023-04-13T09:14:10.675Z,17.20
2023-04-13T09:16:42.796Z,17.40
2023-04-13T09:19:11.173Z,17.50
2023-04-13T09:21:43.558Z,17.60
2023-04-13T09:24:12.501Z,17.80
2023-04-13T09:26:47.928Z,17.90
2023-04-13T09:29:22.332Z,17.90
2023-04-13T09:31:49.371Z,18.00
2023-04-13T09:34:29.063Z,18.00
2023-04-13T09:36:58.087Z,18.00
2023-04-13T09:39:28.961Z,17.90
2023-04-13T09:41:56.637Z,17.90
2023-04-13T09:44:24.892Z,17.80
2023-04-13T09:47:06.967Z,17.80
2023-04-13T09:49:41.223Z,17.80
2023-04-13T09:52:19.488Z,18.00
2023-04-13T09:54:59.847Z,18.20
2023-04-13T09:57:31.854Z,18.50
2023-04-13T10:00:07.370Z,18.70
2023-04-13T10:02:35.908Z,18.80
2023-04-13T10:05:03.986Z,18.80
2023-04-13T10:07:36.952Z,18.80
2023-04-13T10:10:04.903Z,18.90
2023-04-13T10:12:36.671Z,18.90
2023-04-13T10:15:24.123Z,19.00
2023-04-13T10:18:40.019Z,19.30
2023-04-13T10:21:10.684Z,19.40
2023-04-13T10:23:39.054Z,19.30
2023-04-13T10:26:07.109Z,19.40
2023-04-13T10:28:48.320Z,19.60
2023-04-13T10:31:15.426Z,19.80
2023-04-13T10:33:51.870Z,19.90
2023-04-13T10:36:18.810Z,20.00
2023-04-13T10:38:46.972Z,20.00
2023-04-13T10:41:27.058Z,20.10
2023-04-13T10:44:09.228Z,20.00
2023-04-13T10:46:36.504Z,20.30
2023-04-13T10:49:04.806Z,20.30
2023-04-13T10:51:45.446Z,20.30
2023-04-13T10:54:14.315Z,20.50
2023-04-13T10:56:41.286Z,20.50
2023-04-13T10:59:08.247Z,20.60
2023-04-13T11:01:35.852Z,20.60
2023-04-13T11:04:06.763Z,20.60
2023-04-13T11:06:37.965Z,20.70
2023-04-13T11:09:07.077Z,20.70
2023-04-13T11:11:37.257Z,20.90
2023-04-13T11:14:04.525Z,20.80
2023-04-13T11:16:31.672Z,20.80
2023-04-13T11:19:03.867Z,20.80
2023-04-13T11:21:35.443Z,20.70
2023-04-13T11:24:02.771Z,20.30
2023-04-13T11:26:34.347Z,20.00
2023-04-13T11:29:03.963Z,19.80
2023-04-13T11:31:42.041Z,19.90
2023-04-13T11:34:13.180Z,19.90
2023-04-13T11:36:41.059Z,20.00
2023-04-13T11:39:10.649Z,20.00
2023-04-13T11:41:44.524Z,20.10
2023-04-13T11:44:12.467Z,19.90
2023-04-13T11:46:39.600Z,19.80
2023-04-13T11:49:07.315Z,19.70
2023-04-13T11:51:35.070Z,19.50
2023-04-13T11:54:02.687Z,19.50
2023-04-13T11:56:31.048Z,19.50
2023-04-13T12:01:29.987Z,19.60
2023-04-13T12:04:19.064Z,19.60
2023-04-13T12:06:47.665Z,19.70
2023-04-13T12:09:17.776Z,19.60
2023-04-13T12:11:53.959Z,19.60
2023-04-13T12:14:54.161Z,19.40
2023-04-13T12:17:38.095Z,19.40
2023-04-13T12:20:07.660Z,19.30
2023-04-13T12:22:54.860Z,19.20
2023-04-13T12:25:35.711Z,19.20
2023-04-13T12:28:04.122Z,19.20
2023-04-13T12:30:32.856Z,19.00
2023-04-13T12:32:59.821Z,19.10
2023-04-13T12:35:26.690Z,19.00
2023-04-13T12:37:53.605Z,19.00
2023-04-13T12:40:20.590Z,19.00
2023-04-13T12:42:48.984Z,18.90
2023-04-13T12:45:16.856Z,18.90
2023-04-13T12:47:43.880Z,18.90
2023-04-13T12:50:12.395Z,18.80
2023-04-13T12:52:42.885Z,18.80
2023-04-13T12:55:10.049Z,18.80
2023-04-13T12:57:37.153Z,18.80
2023-04-13T13:00:09.816Z,18.80
2023-04-13T13:02:37.484Z,18.70
2023-04-13T13:05:05.082Z,18.60
2023-04-13T13:07:32.233Z,18.60
2023-04-13T13:10:01.077Z,18.50
2023-04-13T13:12:30.225Z,18.40
2023-04-13T13:15:01.310Z,18.30
2023-04-13T13:17:28.645Z,18.30
2023-04-13T13:19:57.055Z,18.40
2023-04-13T13:22:24.030Z,18.60
2023-04-13T13:24:51.174Z,18.70
2023-04-13T13:29:47.882Z,18.60
2023-04-13T13:32:15.489Z,18.60
2023-04-13T13:34:43.667Z,18.60
2023-04-13T13:37:10.698Z,18.70
2023-04-13T13:39:38.485Z,18.70
2023-04-13T13:42:05.642Z,18.80
2023-04-13T13:44:33.854Z,18.80
2023-04-13T13:47:02.057Z,18.90
2023-04-13T13:49:29.001Z,19.00
2023-04-13T13:51:55.984Z,19.00
2023-04-13T13:54:22.963Z,19.20
2023-04-13T13:56:49.872Z,19.20
2023-04-13T13:59:16.782Z,19.30
2023-04-13T14:01:44.067Z,19.40
2023-04-13T14:04:12.856Z,19.30
2023-04-13T14:06:39.881Z,19.30
2023-04-13T14:09:06.883Z,19.30
2023-04-13T14:11:34.539Z,19.30
2023-04-13T14:14:10.853Z,19.30
2023-04-13T14:16:41.715Z,19.20
2023-04-13T14:19:08.678Z,19.20
2023-04-13T14:21:35.801Z,19.20
2023-04-13T14:24:02.854Z,19.10
2023-04-13T14:26:29.825Z,19.00
2023-04-13T14:28:56.895Z,18.90
2023-04-13T14:31:23.892Z,19.00
2023-04-13T14:33:51.053Z,19.00
2023-04-13T14:36:19.290Z,19.00
2023-04-13T14:38:46.177Z,19.00
2023-04-13T14:41:13.869Z,19.10
2023-04-13T14:43:40.803Z,19.00
2023-04-13T14:46:09.028Z,19.00
2023-04-13T14:48:36.173Z,18.90
2023-04-13T14:51:03.261Z,18.80
2023-04-13T14:53:31.153Z,18.70
2023-04-13T14:55:58.510Z,18.80
2023-04-13T14:58:26.134Z,18.70
2023-04-13T15:00:53.386Z,18.60
2023-04-13T15:03:20.484Z,18.70
2023-04-13T15:05:48.345Z,18.70
2023-04-13T15:08:19.686Z,18.70
2023-04-13T15:10:46.575Z,18.70
2023-04-13T15:13:13.467Z,18.60
2023-04-13T15:15:40.806Z,18.60
2023-04-13T15:18:08.524Z,18.60
2023-04-13T15:20:35.514Z,18.60
2023-04-13T15:23:02.533Z,18.70
2023-04-13T15:25:29.539Z,18.70
2023-04-13T15:27:58.693Z,18.60
2023-04-13T15:30:32.084Z,18.60
2023-04-13T15:33:04.927Z,18.70
2023-04-13T15:35:35.642Z,18.70
2023-04-13T15:38:03.210Z,18.70
2023-04-13T15:40:33.605Z,18.70
2023-04-13T15:43:01.105Z,18.70
2023-04-13T15:45:28.113Z,18.70
2023-04-13T15:47:55.319Z,18.70
2023-04-13T15:50:22.406Z,18.70
2023-04-13T15:52:49.297Z,18.70
2023-04-13T15:55:16.297Z,18.70
2023-04-13T15:57:43.485Z,18.70
2023-04-13T16:00:11.136Z,18.70
2023-04-13T16:02:38.743Z,18.70
2023-04-13T16:05:06.009Z,18.70
2023-04-13T16:07:33.005Z,18.70
2023-04-13T16:10:01.710Z,18.50
2023-04-13T16:12:32.283Z,18.50
2023-04-13T16:15:00.174Z,18.50
2023-04-13T16:17:32.056Z,18.50
2023-04-13T16:20:13.957Z,18.60
2023-04-13T16:22:43.624Z,18.60
2023-04-13T16:25:11.497Z,18.60
2023-04-13T16:27:39.899Z,18.60
2023-04-13T16:30:08.436Z,18.60
2023-04-13T16:32:35.588Z,18.60
2023-04-13T16:35:02.690Z,18.70
2023-04-13T16:37:29.647Z,18.60
2023-04-13T16:39:56.582Z,18.60
2023-04-13T16:42:23.595Z,18.60
2023-04-13T16:44:50.457Z,18.50
2023-04-13T16:47:18.367Z,18.20
2023-04-13T16:49:45.513Z,17.60
2023-04-13T16:52:13.044Z,17.00
2023-04-13T16:54:44.044Z,16.60
2023-04-13T16:57:11.938Z,16.40
2023-04-13T16:59:39.124Z,16.10
2023-04-13T17:02:13.197Z,15.80
2023-04-13T17:04:45.290Z,15.50
2023-04-13T17:07:12.235Z,15.40
2023-04-13T17:09:39.277Z,15.20
2023-04-13T17:12:06.492Z,15.10
2023-04-13T17:14:33.854Z,15.10
2023-04-13T17:17:00.762Z,15.00
2023-04-13T17:19:27.871Z,14.90
2023-04-13T17:21:54.790Z,14.80
2023-04-13T17:24:22.196Z,14.70
2023-04-13T17:26:49.110Z,14.50
2023-04-13T17:29:17.641Z,14.50
2023-04-13T17:31:44.700Z,14.50
2023-04-13T17:34:11.665Z,14.40
2023-04-13T17:36:38.719Z,14.40
2023-04-13T17:39:07.014Z,14.20
2023-04-13T17:41:35.015Z,14.20
2023-04-13T17:44:02.292Z,14.20
2023-04-13T17:46:31.968Z,14.20
2023-04-13T17:48:59.504Z,14.30
2023-04-13T17:51:26.852Z,14.30
2023-04-13T17:53:53.896Z,14.30
2023-04-13T17:56:20.973Z,14.30
2023-04-13T17:58:49.224Z,14.30
2023-04-13T18:01:16.310Z,14.20
2023-04-13T18:03:43.525Z,14.20
2023-04-13T18:06:10.957Z,14.20
2023-04-13T18:08:37.828Z,14.20
2023-04-13T18:11:04.819Z,14.20
2023-04-13T18:13:31.791Z,14.30
2023-04-13T18:15:58.748Z,14.30
2023-04-13T18:18:26.882Z,14.30
2023-04-13T18:20:53.854Z,14.20
2023-04-13T18:23:21.771Z,14.10
2023-04-13T18:25:51.096Z,14.10
2023-04-13T18:28:18.512Z,14.00
2023-04-13T18:30:46.233Z,14.00
2023-04-13T18:33:13.213Z,14.00
2023-04-13T18:35:44.453Z,14.00
2023-04-13T18:38:11.617Z,14.00
2023-04-13T18:40:39.849Z,14.00
2023-04-13T18:43:07.853Z,13.90
2023-04-13T18:45:34.834Z,13.90
2023-04-13T18:48:02.129Z,13.80
2023-04-13T18:50:29.412Z,13.80
2023-04-13T18:52:56.695Z,13.80
2023-04-13T18:55:25.692Z,13.80
2023-04-13T18:57:52.752Z,13.70
2023-04-13T19:00:20.519Z,13.70
2023-04-13T19:02:57.220Z,13.70
2023-04-13T19:05:24.563Z,13.70
2023-04-13T19:07:59.956Z,13.70
2023-04-13T19:10:31.562Z,13.70
2023-04-13T19:12:58.615Z,13.70
2023-04-13T19:15:25.703Z,13.60
2023-04-13T19:17:53.053Z,13.70
2023-04-13T19:20:25.007Z,13.70
2023-04-13T19:22:54.632Z,13.70
2023-04-13T19:25:21.658Z,13.60
2023-04-13T19:27:50.030Z,13.70
2023-04-13T19:30:18.998Z,13.70
2023-04-13T19:32:49.208Z,13.60
2023-04-13T19:35:19.882Z,13.60
2023-04-13T19:37:46.828Z,13.60
2023-04-13T19:40:15.260Z,13.60
2023-04-13T19:42:44.687Z,13.60
2023-04-13T19:45:14.098Z,13.50
2023-04-13T19:47:42.392Z,13.40
2023-04-13T19:50:12.755Z,13.40
2023-04-13T19:52:41.558Z,13.30
2023-04-13T19:55:10.507Z,13.30
2023-04-13T19:57:42.059Z,13.20
2023-04-13T20:00:20.419Z,13.20
2023-04-13T20:02:50.479Z,13.10
2023-04-13T20:05:19.461Z,13.10
2023-04-13T20:07:46.463Z,13.00
2023-04-13T20:10:13.394Z,13.00
2023-04-13T20:12:40.319Z,13.00
2023-04-13T20:15:08.017Z,13.00
2023-04-13T20:17:35.004Z,12.90
2023-04-13T20:20:02.484Z,12.90
2023-04-13T20:22:29.417Z,12.80
2023-04-13T20:24:56.362Z,12.70
2023-04-13T20:27:24.028Z,12.70
2023-04-13T20:29:51.955Z,12.60
2023-04-13T20:32:18.947Z,12.50
2023-04-13T20:34:45.874Z,12.50
2023-04-13T20:37:14.465Z,12.50
2023-04-13T20:39:50.111Z,12.40
2023-04-13T20:42:19.491Z,12.40
2023-04-13T20:44:46.973Z,12.50
2023-04-13T20:47:14.113Z,12.40
2023-04-13T20:49:49.582Z,12.40
2023-04-13T20:52:18.117Z,12.30
2023-04-13T20:54:46.033Z,12.30
2023-04-13T20:57:13.308Z,12.30
2023-04-13T20:59:40.788Z,12.30
2023-04-13T21:02:09.171Z,12.30
2023-04-13T21:04:40.715Z,12.30
2023-04-13T21:07:11.048Z,12.30
2023-04-13T21:09:38.264Z,12.30
2023-04-13T21:12:05.360Z,12.30
2023-04-13T21:14:32.350Z,12.30
2023-04-13T21:16:59.755Z,12.30
2023-04-13T21:19:28.088Z,12.30
2023-04-13T21:21:57.340Z,12.30
2023-04-13T21:24:24.537Z,12.20
2023-04-13T21:26:51.483Z,12.30
2023-04-13T21:29:20.141Z,12.20
2023-04-13T21:31:47.921Z,12.20
2023-04-13T21:34:16.686Z,12.20
2023-04-13T21:39:15.973Z,12.20
2023-04-13T21:41:42.830Z,12.10
2023-04-13T21:44:22.624Z,12.10
2023-04-13T21:46:55.924Z,12.00
2023-04-13T21:49:22.946Z,12.10
2023-04-13T21:51:49.873Z,12.10
2023-04-13T21:54:16.777Z,12.10
2023-04-13T21:56:43.892Z,12.10
2023-04-13T21:59:11.063Z,12.10
2023-04-13T22:01:38.024Z,12.10
2023-04-13T22:04:05.076Z,12.10
2023-04-13T22:06:32.693Z,12.10
2023-04-13T22:08:59.755Z,12.10
2023-04-13T22:11:26.851Z,12.10
2023-04-13T22:13:53.758Z,12.10
2023-04-13T22:16:20.921Z,12.10
2023-04-13T22:18:47.937Z,12.10
2023-04-13T22:21:14.868Z,12.10
2023-04-13T22:23:41.772Z,12.10
2023-04-13T22:26:08.703Z,12.10
2023-04-13T22:28:35.593Z,12.20
2023-04-13T22:31:09.540Z,12.20
2023-04-13T22:33:36.889Z,12.20
2023-04-13T22:36:17.454Z,12.20
2023-04-13T22:38:44.519Z,12.20
2023-04-13T22:41:11.557Z,12.30
2023-04-13T22:43:38.633Z,12.20
2023-04-13T22:46:05.834Z,12.20
2023-04-13T22:48:32.748Z,12.20
2023-04-13T22:51:03.698Z,12.20
2023-04-13T22:53:31.211Z,12.20
2023-04-13T22:55:59.321Z,12.30
2023-04-13T22:58:26.601Z,12.30
2023-04-13T23:00:53.543Z,12.30
2023-04-13T23:03:21.336Z,12.30
2023-04-13T23:05:48.539Z,12.30
2023-04-13T23:08:15.413Z,12.30
2023-04-13T23:10:42.302Z,12.30
2023-04-13T23:13:09.239Z,12.40
2023-04-13T23:15:36.220Z,12.30
2023-04-13T23:18:03.267Z,12.30
2023-04-13T23:20:30.569Z,12.30
2023-04-13T23:22:57.479Z,12.30
2023-04-13T23:25:24.597Z,12.30
2023-04-13T23:27:51.479Z,12.40
2023-04-13T23:30:18.588Z,12.40
2023-04-13T23:32:45.497Z,12.30
2023-04-13T23:35:12.510Z,12.40
2023-04-13T23:37:40.679Z,12.40
2023-04-13T23:40:09.908Z,12.40
2023-04-13T23:42:36.825Z,12.40
2023-04-13T23:45:04.253Z,12.40
2023-04-13T23:47:31.434Z,12.50
2023-04-13T23:49:58.396Z,12.50
2023-04-13T23:52:25.293Z,12.50
2023-04-13T23:54:52.140Z,12.50
2023-04-13T23:57:19.025Z,12.60
2023-04-13T23:59:45.980Z,12.60
